CheckWX is a tool to help pilots better visualize weather data.  It is not intended as a substitute for an official pre-flight weather briefing.

10:07:17 UTC

RJNS TAF
Mt. Fuji Shizuoka Airport
Makinohara / Shimada, Japan
TAF RJNS 260505Z 2606/2712 19008KT 9999 FEW020 BECMG 2607/2609 24006KT BECMG 2612/2614 FEW005 BKN008 TEMPO 2612/2621 4000 -SHRA BR FEW003 BKN005 BECMG 2703/2706 20006KT TEMPO 2706/2712 3000 -SHRA BR FEW003 BKN005

Jun-26@
06:00 UTC

Jun-26 @ 06:00 UTC

Jun-26@
07:00 UTC

Jun-26 @ 07:00 UTC

TAF RJNS 260505Z 2606/2712 19008KT 9999 FEW020

Expired

Wind
  • 190° at 8 KTS
Cloud Levels
  • Few at 2,000' AGL

Jun-26@
07:00 UTC

Jun-26 @ 07:00 UTC

Jun-26@
12:00 UTC

Jun-26 @ 12:00 UTC

BECMG 2607/2609 24006KT

Becoming

Becoming Conditions expected by Wed, Jun 26, 2019 @ 09:00 UTC

Wind
  • 240° at 6 KTS
Cloud Levels
  • Few at 2,000' AGL

Jun-26@
12:00 UTC

Jun-26 @ 12:00 UTC

Jun-26@
21:00 UTC

Jun-26 @ 21:00 UTC

TEMPO 2612/2621 4000 -SHRA BR FEW003 BKN005

Temporary

Temporary Changes expected for less than half the time period

Conditions
Light Rain, Mist
Cloud Levels
  • Few at 300' AGL
  • Broken at 500' AGL

Jun-26@
12:00 UTC

Jun-26 @ 12:00 UTC

Jun-27@
03:00 UTC

Jun-27 @ 03:00 UTC

BECMG 2612/2614 FEW005 BKN008

Becoming

Becoming Conditions expected by Wed, Jun 26, 2019 @ 14:00 UTC

Wind
  • 240° at 6 KTS
Cloud Levels
  • Few at 500' AGL
  • Broken at 800' AGL

Jun-27@
03:00 UTC

Jun-27 @ 03:00 UTC

Jun-27@
12:00 UTC

Jun-27 @ 12:00 UTC

BECMG 2703/2706 20006KT

Becoming

Becoming Conditions expected by Thu, Jun 27, 2019 @ 06:00 UTC

Wind
  • 200° at 6 KTS
Cloud Levels
  • Few at 500' AGL
  • Broken at 800' AGL

Jun-27@
06:00 UTC

Jun-27 @ 06:00 UTC

Jun-27@
12:00 UTC

Jun-27 @ 12:00 UTC

TEMPO 2706/2712 3000 -SHRA BR FEW003 BKN005

Temporary

Temporary Changes expected for less than half the time period

Conditions
Light Rain, Mist
Cloud Levels
  • Few at 300' AGL
  • Broken at 500' AGL